createdAt,value
2019-05-05T00:04:08.893Z,3.66
2019-05-05T00:06:37.530Z,3.67
2019-05-05T00:09:45.999Z,3.61
2019-05-05T00:20:34.666Z,3.72
2019-05-05T00:23:05.218Z,3.65
2019-05-05T00:25:34.289Z,3.75
2019-05-05T00:28:05.031Z,3.77
2019-05-05T00:30:34.444Z,3.80
2019-05-05T00:33:05.385Z,3.73
2019-05-05T00:35:34.475Z,3.72
2019-05-05T00:38:05.029Z,3.67
2019-05-05T00:40:35.318Z,3.64
2019-05-05T00:43:05.457Z,3.62
2019-05-05T00:48:44.448Z,3.61
2019-05-05T00:51:15.135Z,3.87
2019-05-05T00:53:44.916Z,3.77
2019-05-05T00:56:14.703Z,3.65
2019-05-05T00:59:04.483Z,3.58
2019-05-05T01:01:51.966Z,3.64
2019-05-05T01:04:39.697Z,3.55
2019-05-05T01:07:08.405Z,3.56
2019-05-05T01:14:47.757Z,3.48
2019-05-05T01:17:16.428Z,3.56
2019-05-05T01:19:49.498Z,3.53
2019-05-05T01:22:15.460Z,3.47
2019-05-05T01:25:05.428Z,3.55
2019-05-05T01:27:34.789Z,3.60
2019-05-05T01:30:44.547Z,3.65
2019-05-05T01:35:48.737Z,3.47
2019-05-05T01:38:36.494Z,3.44
2019-05-05T01:43:45.229Z,3.46
2019-05-05T01:46:14.795Z,3.49
2019-05-05T01:48:44.547Z,3.50
2019-05-05T01:51:14.324Z,3.53
2019-05-05T01:53:44.414Z,3.48
2019-05-05T02:02:17.511Z,3.45
2019-05-05T02:04:46.155Z,3.43
2019-05-05T02:07:14.946Z,3.44
2019-05-05T02:09:44.932Z,3.51
2019-05-05T02:12:15.836Z,3.53
2019-05-05T02:14:44.623Z,3.54
2019-05-05T02:17:14.450Z,3.56
2019-05-05T02:19:44.305Z,3.63
2019-05-05T02:22:14.739Z,3.58
2019-05-05T02:24:44.654Z,3.58
2019-05-05T02:27:14.569Z,3.63
2019-05-05T02:30:06.182Z,3.70
2019-05-05T02:32:55.185Z,3.58
2019-05-05T02:35:25.618Z,3.60
2019-05-05T02:37:55.754Z,3.59
2019-05-05T02:41:05.081Z,3.52
2019-05-05T02:43:55.708Z,3.53
2019-05-05T02:47:04.872Z,3.53
2019-05-05T02:53:21.523Z,3.74
2019-05-05T02:56:29.949Z,3.93
2019-05-05T02:59:38.408Z,3.89
2019-05-05T03:05:15.220Z,3.52
2019-05-05T03:08:24.227Z,3.52
2019-05-05T03:14:28.655Z,3.41
2019-05-05T03:17:37.184Z,3.38
2019-05-05T03:20:45.616Z,3.40
2019-05-05T03:23:54.743Z,3.43
2019-05-05T03:27:04.193Z,3.72
2019-05-05T03:29:33.581Z,3.68
2019-05-05T03:32:45.532Z,3.57
2019-05-05T03:35:54.160Z,3.45
2019-05-05T03:38:24.796Z,3.52
2019-05-05T03:46:23.942Z,3.33
2019-05-05T03:48:54.048Z,3.27
2019-05-05T03:54:57.532Z,3.27
2019-05-05T03:58:05.990Z,3.25
2019-05-05T04:01:14.537Z,3.22
2019-05-05T04:03:43.590Z,3.37
2019-05-05T04:06:14.572Z,3.29
2019-05-05T04:09:24.250Z,3.33
2019-05-05T04:11:54.022Z,3.37
2019-05-05T04:17:50.727Z,3.23
2019-05-05T04:23:08.539Z,3.25
2019-05-05T04:25:37.224Z,3.21
2019-05-05T04:28:05.879Z,3.21
2019-05-05T04:30:34.562Z,3.17
2019-05-05T04:35:58.472Z,3.22
2019-05-05T04:38:27.086Z,3.17
2019-05-05T04:40:55.662Z,3.21
2019-05-05T04:43:24.692Z,3.31
2019-05-05T04:45:54.616Z,3.25
2019-05-05T04:48:43.908Z,3.25
2019-05-05T04:56:46.573Z,3.38
2019-05-05T04:59:15.201Z,3.52
2019-05-05T05:07:17.886Z,3.37
2019-05-05T05:09:46.443Z,3.57
2019-05-05T05:12:15.119Z,3.59
2019-05-05T05:14:44.186Z,3.53
2019-05-05T05:19:49.250Z,3.62
2019-05-05T05:22:17.869Z,3.72
2019-05-05T05:24:46.499Z,3.68
2019-05-05T05:27:15.113Z,3.65
2019-05-05T05:29:43.800Z,3.66
2019-05-05T05:32:15.558Z,3.77
2019-05-05T05:34:44.214Z,3.87
2019-05-05T05:37:13.488Z,4.00
2019-05-05T05:42:18.609Z,3.99
2019-05-05T05:47:55.551Z,4.06
2019-05-05T05:50:44.299Z,4.15
2019-05-05T05:53:14.026Z,4.21
2019-05-05T05:55:44.805Z,4.07
2019-05-05T05:58:14.419Z,4.00
2019-05-05T06:01:23.946Z,4.13
2019-05-05T06:03:53.678Z,4.11
2019-05-05T06:06:24.122Z,4.07
2019-05-05T06:08:54.413Z,4.09
2019-05-05T06:11:24.249Z,4.08
2019-05-05T06:13:54.493Z,4.12
2019-05-05T06:16:23.581Z,4.06
2019-05-05T06:18:54.124Z,4.03
2019-05-05T06:21:24.170Z,4.12
2019-05-05T06:23:53.737Z,4.11
2019-05-05T06:26:24.025Z,4.08
2019-05-05T06:28:54.114Z,4.25
2019-05-05T06:31:24.550Z,4.42
2019-05-05T06:33:54.443Z,4.44
2019-05-05T06:36:23.426Z,4.46
2019-05-05T06:38:54.141Z,4.48
2019-05-05T06:44:18.589Z,4.15
2019-05-05T06:47:06.362Z,4.35
2019-05-05T06:49:35.041Z,4.42
2019-05-05T06:52:04.237Z,4.48
2019-05-05T06:54:34.847Z,4.52
2019-05-05T06:57:04.693Z,4.38
2019-05-05T06:59:35.163Z,4.30
2019-05-05T07:02:04.343Z,4.36
2019-05-05T07:04:34.479Z,4.59
2019-05-05T07:07:04.890Z,4.70
2019-05-05T07:09:33.753Z,4.80
2019-05-05T07:12:04.327Z,4.65
2019-05-05T07:14:33.996Z,4.49
2019-05-05T07:17:05.133Z,4.40
2019-05-05T07:19:34.500Z,4.47
2019-05-05T07:22:04.254Z,4.60
2019-05-05T07:24:34.679Z,4.73
2019-05-05T07:27:24.437Z,4.63
2019-05-05T07:29:54.456Z,4.65
2019-05-05T07:32:24.551Z,4.72
2019-05-05T07:37:34.428Z,4.75
2019-05-05T07:42:58.077Z,4.43
2019-05-05T07:45:26.765Z,4.57
2019-05-05T07:47:55.453Z,4.72
2019-05-05T07:50:29.559Z,4.82
2019-05-05T07:52:54.680Z,5.02
2019-05-05T07:55:23.833Z,5.23
2019-05-05T07:57:53.959Z,5.44
2019-05-05T08:00:24.094Z,5.58
2019-05-05T08:03:14.335Z,5.57
2019-05-05T08:05:44.350Z,5.67
2019-05-05T08:08:14.395Z,5.58
2019-05-05T08:10:43.764Z,5.91
2019-05-05T08:13:14.113Z,6.10
2019-05-05T08:21:25.215Z,5.91
2019-05-05T08:24:13.963Z,5.53
2019-05-05T08:29:51.671Z,5.81
2019-05-05T08:32:39.440Z,5.88
2019-05-05T08:35:08.231Z,6.28
2019-05-05T08:37:36.835Z,6.57
2019-05-05T08:40:24.912Z,6.64
2019-05-05T08:42:54.042Z,6.64
2019-05-05T08:45:26.638Z,6.55
2019-05-05T08:47:54.397Z,6.80
2019-05-05T08:50:26.758Z,6.91
2019-05-05T08:52:53.789Z,7.29
2019-05-05T08:55:24.873Z,7.51
2019-05-05T08:57:54.169Z,7.49
2019-05-05T09:00:24.495Z,7.61
2019-05-05T09:02:54.358Z,7.77
2019-05-05T09:05:43.685Z,7.93
2019-05-05T09:08:13.978Z,8.24
2019-05-05T09:10:44.781Z,8.45
2019-05-05T09:13:14.518Z,8.46
2019-05-05T09:16:04.015Z,8.21
2019-05-05T09:18:33.921Z,8.11
2019-05-05T09:21:04.395Z,7.62
2019-05-05T09:29:17.249Z,6.73
2019-05-05T09:31:45.886Z,6.61
2019-05-05T09:34:14.773Z,6.53
2019-05-05T09:36:43.993Z,6.74
2019-05-05T09:39:13.953Z,7.21
2019-05-05T09:41:44.688Z,7.81
2019-05-05T09:44:14.485Z,8.47
2019-05-05T09:46:44.623Z,8.75
2019-05-05T09:49:14.180Z,8.61
2019-05-05T09:54:25.795Z,8.35
2019-05-05T09:57:34.454Z,7.90
2019-05-05T10:00:44.419Z,7.88
2019-05-05T10:03:14.512Z,8.05
2019-05-05T10:06:24.395Z,7.82
2019-05-05T10:08:53.903Z,7.42
2019-05-05T10:11:24.056Z,7.04
2019-05-05T10:13:54.554Z,6.61
2019-05-05T10:16:23.567Z,6.45
2019-05-05T10:18:54.179Z,6.21
2019-05-05T10:21:24.662Z,6.49
2019-05-05T10:26:43.844Z,7.25
2019-05-05T10:29:13.670Z,8.09
2019-05-05T10:31:43.671Z,8.89
2019-05-05T10:34:33.494Z,9.73
2019-05-05T10:37:04.238Z,10.03
2019-05-05T10:42:08.671Z,9.68
2019-05-05T10:44:37.311Z,9.57
2019-05-05T10:47:05.986Z,9.82
2019-05-05T10:49:34.562Z,10.57
2019-05-05T10:52:03.841Z,10.90
2019-05-05T10:54:43.284Z,10.79
2019-05-05T10:57:04.236Z,11.01
2019-05-05T10:59:34.393Z,10.71
2019-05-05T11:04:58.175Z,10.83
2019-05-05T11:07:26.897Z,10.48
2019-05-05T11:09:55.567Z,10.16
2019-05-05T11:12:24.707Z,9.46
2019-05-05T11:14:54.618Z,9.31
2019-05-05T11:17:24.802Z,9.18
2019-05-05T11:19:53.598Z,9.23
2019-05-05T11:22:24.189Z,9.42
2019-05-05T11:24:58.306Z,9.47
2019-05-05T11:27:24.127Z,9.63
2019-05-05T11:30:14.296Z,9.55
2019-05-05T11:33:03.954Z,9.99
2019-05-05T11:35:53.760Z,10.05
2019-05-05T11:38:21.963Z,10.25
2019-05-05T11:40:50.618Z,10.06
2019-05-05T11:43:19.163Z,9.60
2019-05-05T11:45:47.808Z,9.68
2019-05-05T11:48:16.441Z,9.61
2019-05-05T11:50:45.126Z,10.08
2019-05-05T11:53:14.495Z,10.82
2019-05-05T11:55:44.454Z,11.48
2019-05-05T11:58:14.581Z,11.31
2019-05-05T12:00:43.980Z,10.42
2019-05-05T12:03:14.331Z,10.53
2019-05-05T12:05:44.411Z,10.70
2019-05-05T12:08:14.785Z,10.73
2019-05-05T12:13:20.164Z,10.06
2019-05-05T12:18:28.406Z,10.55
2019-05-05T12:20:57.042Z,10.28
2019-05-05T12:23:25.713Z,10.01
2019-05-05T12:28:54.652Z,10.82
2019-05-05T12:34:12.483Z,11.56
2019-05-05T12:36:41.089Z,11.95
2019-05-05T12:41:58.988Z,11.39
2019-05-05T12:47:23.630Z,11.08
2019-05-05T12:49:54.412Z,11.02
2019-05-05T12:52:22.809Z,10.83
2019-05-05T12:54:51.484Z,10.86
2019-05-05T12:57:20.118Z,10.98
2019-05-05T12:59:48.825Z,10.73
2019-05-05T13:02:17.454Z,10.97
2019-05-05T13:04:46.127Z,10.97
2019-05-05T13:07:14.781Z,11.08
2019-05-05T13:09:44.083Z,10.73
2019-05-05T13:12:15.037Z,10.60
2019-05-05T13:14:44.284Z,10.28
2019-05-05T13:17:14.215Z,10.27
2019-05-05T13:20:02.574Z,10.50
2019-05-05T13:22:50.317Z,10.61
2019-05-05T13:25:38.118Z,10.51
2019-05-05T13:28:06.828Z,10.28
2019-05-05T13:30:35.479Z,10.14
2019-05-05T13:33:04.145Z,9.99
2019-05-05T13:35:34.033Z,9.85
2019-05-05T13:38:04.126Z,9.90
2019-05-05T13:40:34.541Z,9.77
2019-05-05T13:43:04.367Z,9.74
2019-05-05T13:45:54.051Z,9.85
2019-05-05T13:48:22.808Z,10.12
2019-05-05T13:51:10.578Z,10.35
2019-05-05T13:53:39.198Z,10.50
2019-05-05T13:56:12.356Z,10.26
2019-05-05T13:58:38.244Z,10.46
2019-05-05T14:01:09.687Z,11.22
2019-05-05T14:03:37.322Z,11.25
2019-05-05T14:06:06.017Z,11.38
2019-05-05T14:08:36.369Z,11.85
2019-05-05T14:11:05.042Z,11.95
2019-05-05T14:13:34.243Z,12.01
2019-05-05T14:16:04.086Z,12.81
2019-05-05T14:18:32.759Z,12.81
2019-05-05T14:21:01.448Z,12.53
2019-05-05T14:26:38.523Z,12.47
2019-05-05T14:29:45.524Z,13.05
2019-05-05T14:40:34.012Z,13.26
2019-05-05T14:43:04.419Z,12.78
2019-05-05T14:45:34.033Z,12.81
2019-05-05T14:48:03.980Z,12.67
2019-05-05T14:50:34.732Z,12.36
2019-05-05T14:53:04.185Z,12.36
2019-05-05T14:55:33.606Z,12.84
2019-05-05T14:58:03.982Z,13.31
2019-05-05T15:00:33.795Z,13.31
2019-05-05T15:03:03.647Z,13.31
2019-05-05T15:05:51.948Z,13.17
2019-05-05T15:08:39.765Z,13.40
2019-05-05T15:11:27.576Z,13.65
2019-05-05T15:13:56.285Z,13.84
2019-05-05T15:16:25.004Z,14.01
2019-05-05T15:18:53.647Z,14.41
2019-05-05T15:21:23.632Z,14.28
2019-05-05T15:23:54.085Z,14.58
2019-05-05T15:26:23.793Z,14.12
2019-05-05T15:29:01.222Z,13.79
2019-05-05T15:31:23.898Z,13.45
2019-05-05T15:33:53.541Z,12.96
2019-05-05T15:36:24.322Z,12.72
2019-05-05T15:38:55.045Z,12.63
2019-05-05T15:41:44.593Z,12.61
2019-05-05T15:44:13.536Z,12.88
2019-05-05T15:46:44.192Z,13.40
2019-05-05T15:49:14.029Z,13.65
2019-05-05T15:51:44.290Z,13.62
2019-05-05T15:54:14.094Z,13.21
2019-05-05T16:05:54.350Z,13.90
2019-05-05T16:08:22.927Z,14.00
2019-05-05T16:14:46.258Z,13.92
2019-05-05T16:17:35.281Z,12.58
2019-05-05T16:20:44.334Z,11.72
2019-05-05T16:26:21.721Z,11.06
2019-05-05T16:28:50.362Z,10.59
2019-05-05T16:31:19.031Z,10.30
2019-05-05T16:33:48.728Z,10.26
2019-05-05T16:36:18.083Z,10.27
2019-05-05T16:38:46.641Z,10.12
2019-05-05T16:41:15.521Z,9.88
2019-05-05T16:43:45.632Z,9.74
2019-05-05T16:46:17.102Z,9.69
2019-05-05T16:48:44.665Z,9.65
2019-05-05T16:51:33.334Z,9.61
2019-05-05T16:56:38.060Z,9.56
2019-05-05T16:59:06.752Z,9.41
2019-05-05T17:01:35.754Z,9.23
2019-05-05T17:04:11.179Z,9.40
2019-05-05T17:06:36.187Z,9.28
2019-05-05T17:09:44.602Z,9.29
2019-05-05T17:12:14.124Z,9.21
2019-05-05T17:17:53.927Z,8.99
2019-05-05T17:20:41.472Z,9.05
2019-05-05T17:25:49.684Z,9.05
2019-05-05T17:28:18.357Z,9.07
2019-05-05T17:30:47.104Z,8.99
2019-05-05T17:33:15.738Z,8.78
2019-05-05T17:35:44.389Z,8.58
2019-05-05T17:46:18.607Z,8.38
2019-05-05T17:49:26.965Z,8.27
2019-05-05T17:52:14.826Z,8.27
2019-05-05T17:55:04.575Z,8.34
2019-05-05T17:57:34.541Z,8.30
2019-05-05T18:00:24.291Z,8.41
2019-05-05T18:02:53.440Z,8.43
2019-05-05T18:05:44.650Z,8.46
2019-05-05T18:08:33.776Z,8.65
2019-05-05T18:14:00.820Z,8.27
2019-05-05T18:16:48.687Z,8.21
2019-05-05T18:19:17.329Z,8.08
2019-05-05T18:21:45.996Z,8.00
2019-05-05T18:24:14.614Z,8.01
2019-05-05T18:26:43.635Z,7.88
2019-05-05T18:29:14.556Z,7.75
2019-05-05T18:31:44.067Z,7.68
2019-05-05T18:34:13.485Z,7.59
2019-05-05T18:36:44.525Z,7.48
2019-05-05T18:39:13.805Z,7.39
2019-05-05T18:42:04.354Z,7.30
2019-05-05T18:44:54.024Z,7.22
2019-05-05T18:47:25.186Z,7.17
2019-05-05T18:49:54.002Z,7.01
2019-05-05T18:52:24.606Z,6.92
2019-05-05T18:54:54.553Z,6.81
2019-05-05T18:57:24.806Z,6.70
2019-05-05T18:59:54.785Z,6.56
2019-05-05T19:05:34.327Z,6.32
2019-05-05T19:08:24.440Z,6.15
2019-05-05T19:10:54.411Z,6.10
2019-05-05T19:13:24.477Z,6.01
2019-05-05T19:16:14.227Z,5.90
2019-05-05T19:18:44.742Z,5.84
2019-05-05T19:21:34.036Z,5.78
2019-05-05T19:24:03.854Z,5.69
2019-05-05T19:26:33.791Z,5.61
2019-05-05T19:29:05.061Z,5.57
2019-05-05T19:31:36.494Z,5.54
2019-05-05T19:34:07.670Z,5.49
2019-05-05T19:36:37.095Z,5.44
2019-05-05T19:39:45.542Z,5.41
2019-05-05T19:42:14.459Z,5.35
2019-05-05T19:44:44.504Z,5.29
2019-05-05T19:50:21.459Z,5.10
2019-05-05T19:52:50.151Z,4.98
2019-05-05T19:55:18.797Z,4.90
2019-05-05T19:57:47.585Z,4.84
2019-05-05T20:00:26.278Z,4.81
2019-05-05T20:03:03.734Z,4.79
2019-05-05T20:05:24.846Z,4.88
2019-05-05T20:07:55.329Z,4.81
2019-05-05T20:10:24.010Z,4.75
2019-05-05T20:12:54.057Z,4.75
2019-05-05T20:15:44.297Z,4.65
2019-05-05T20:18:14.212Z,4.59
2019-05-05T20:20:44.536Z,4.57
2019-05-05T20:23:13.758Z,4.50
2019-05-05T20:25:44.801Z,4.36
2019-05-05T20:28:14.572Z,4.30
2019-05-05T20:30:44.631Z,4.24
2019-05-05T20:33:33.783Z,4.30
2019-05-05T20:43:57.925Z,3.99
2019-05-05T20:46:26.539Z,3.94
2019-05-05T20:48:55.595Z,3.87
2019-05-05T20:52:04.186Z,3.89
2019-05-05T20:54:32.865Z,3.87
2019-05-05T20:57:20.742Z,3.81
2019-05-05T20:59:49.221Z,3.77
2019-05-05T21:02:17.926Z,3.72
2019-05-05T21:05:05.739Z,3.81
2019-05-05T21:07:34.762Z,3.71
2019-05-05T21:10:44.581Z,3.57
2019-05-05T21:13:14.421Z,3.59
2019-05-05T21:15:45.100Z,3.57
2019-05-05T21:18:14.446Z,3.52
2019-05-05T21:20:44.414Z,3.65
2019-05-05T21:23:34.115Z,3.58
2019-05-05T21:28:53.747Z,3.35
2019-05-05T21:31:23.939Z,3.43
2019-05-05T21:33:54.805Z,3.42
2019-05-05T21:36:24.293Z,3.53
2019-05-05T21:38:54.766Z,3.52
2019-05-05T21:41:24.427Z,3.45
2019-05-05T21:44:14.696Z,3.38
2019-05-05T21:47:03.032Z,3.35
2019-05-05T21:49:33.668Z,3.25
2019-05-05T21:52:21.258Z,3.23
2019-05-05T22:00:54.889Z,3.16
2019-05-05T22:06:00.567Z,3.00
2019-05-05T22:08:29.200Z,2.99
2019-05-05T22:10:57.814Z,3.00
2019-05-05T22:13:26.548Z,2.95
2019-05-05T22:15:55.157Z,2.97
2019-05-05T22:18:23.806Z,2.92
2019-05-05T22:21:14.007Z,2.91
2019-05-05T22:23:44.057Z,2.88
2019-05-05T22:26:14.593Z,2.79
2019-05-05T22:28:44.615Z,2.73
2019-05-05T22:31:14.177Z,2.71
2019-05-05T22:33:44.732Z,2.68
2019-05-05T22:36:14.158Z,2.65
2019-05-05T22:38:44.575Z,2.59
2019-05-05T22:41:15.750Z,2.54
2019-05-05T22:43:44.324Z,2.49
2019-05-05T22:46:14.211Z,2.54
2019-05-05T22:48:44.374Z,2.46
2019-05-05T22:51:14.471Z,2.37
2019-05-05T22:53:44.098Z,2.43
2019-05-05T22:56:14.795Z,2.39
2019-05-05T22:58:44.121Z,2.42
2019-05-05T23:01:13.591Z,2.34
2019-05-05T23:04:03.667Z,2.32
2019-05-05T23:06:51.823Z,2.29
2019-05-05T23:09:20.440Z,2.33
2019-05-05T23:11:49.115Z,2.19
2019-05-05T23:14:36.799Z,2.13
2019-05-05T23:22:35.485Z,2.19
2019-05-05T23:31:07.279Z,2.22
2019-05-05T23:33:35.921Z,2.18
2019-05-05T23:36:04.590Z,2.27
2019-05-05T23:38:34.757Z,2.27
2019-05-05T23:41:03.952Z,2.26
2019-05-05T23:43:34.537Z,2.31
2019-05-05T23:46:04.323Z,2.23
2019-05-05T23:48:34.731Z,2.14
2019-05-05T23:51:04.523Z,1.97
2019-05-05T23:53:34.453Z,2.01
2019-05-05T23:56:04.084Z,1.91
2019-05-05T23:58:34.657Z,1.88
